createdAt,value
2022-12-28T00:01:24.015Z,4.70
2022-12-28T00:03:51.680Z,4.70
2022-12-28T00:06:20.118Z,4.80
2022-12-28T00:08:47.117Z,4.90
2022-12-28T00:11:27.433Z,4.80
2022-12-28T00:13:59.277Z,4.90
2022-12-28T00:16:33.161Z,4.90
2022-12-28T00:19:03.863Z,4.90
2022-12-28T00:21:31.206Z,4.80
2022-12-28T00:23:59.371Z,4.90
2022-12-28T00:26:32.045Z,4.90
2022-12-28T00:29:04.699Z,4.90
2022-12-28T00:31:33.472Z,4.90
2022-12-28T00:34:00.428Z,4.90
2022-12-28T00:37:10.638Z,4.80
2022-12-28T00:39:13.734Z,4.90
2022-12-28T00:41:40.302Z,4.90
2022-12-28T00:44:06.939Z,5.00
2022-12-28T00:46:33.530Z,4.90
2022-12-28T00:49:00.149Z,5.00
2022-12-28T00:51:26.904Z,5.00
2022-12-28T00:53:53.605Z,5.00
2022-12-28T00:56:23.355Z,5.00
2022-12-28T00:58:50.531Z,5.00
2022-12-28T01:01:19.990Z,5.00
2022-12-28T01:03:47.544Z,4.80
2022-12-28T01:06:16.518Z,5.00
2022-12-28T01:08:43.332Z,5.00
2022-12-28T01:11:13.526Z,4.90
2022-12-28T01:13:40.141Z,5.00
2022-12-28T01:16:29.160Z,4.90
2022-12-28T01:18:58.584Z,5.30
2022-12-28T01:21:28.365Z,5.10
2022-12-28T01:23:57.483Z,5.00
2022-12-28T01:26:24.833Z,5.00
2022-12-28T01:28:51.880Z,5.00
2022-12-28T01:31:20.005Z,5.00
2022-12-28T01:33:47.494Z,5.10
2022-12-28T01:36:23.638Z,5.10
2022-12-28T01:38:59.163Z,5.20
2022-12-28T01:41:28.538Z,5.10
2022-12-28T01:43:55.048Z,5.00
2022-12-28T01:46:24.841Z,5.00
2022-12-28T01:48:58.829Z,5.00
2022-12-28T01:51:31.152Z,5.10
2022-12-28T01:54:02.772Z,5.10
2022-12-28T01:56:29.437Z,4.90
2022-12-28T01:58:56.942Z,5.20
2022-12-28T02:01:24.111Z,5.20
2022-12-28T02:03:50.896Z,5.20
2022-12-28T02:06:19.283Z,5.10
2022-12-28T02:09:16.737Z,5.00
2022-12-28T02:11:44.367Z,4.90
2022-12-28T02:14:12.965Z,4.90
2022-12-28T02:16:39.633Z,4.80
2022-12-28T02:19:09.588Z,4.70
2022-12-28T02:22:08.385Z,4.80
2022-12-28T02:25:15.837Z,4.80
2022-12-28T02:28:02.909Z,4.80
2022-12-28T02:30:35.737Z,4.80
2022-12-28T02:33:16.358Z,4.70
2022-12-28T02:35:55.870Z,4.70
2022-12-28T02:38:30.077Z,4.70
2022-12-28T02:41:06.561Z,4.60
2022-12-28T02:43:34.056Z,4.50
2022-12-28T02:46:40.057Z,4.50
2022-12-28T02:49:46.117Z,4.60
2022-12-28T02:52:38.155Z,4.60
2022-12-28T02:55:29.495Z,4.60
2022-12-28T02:58:26.857Z,4.60
2022-12-28T03:01:18.140Z,4.50
2022-12-28T03:04:16.999Z,4.50
2022-12-28T03:07:19.354Z,4.40
2022-12-28T03:10:06.101Z,4.40
2022-12-28T03:12:58.342Z,4.40
2022-12-28T03:15:32.005Z,4.40
2022-12-28T03:18:24.014Z,4.40
2022-12-28T03:21:12.172Z,4.40
2022-12-28T03:24:01.224Z,4.40
2022-12-28T03:26:50.181Z,4.40
2022-12-28T03:29:39.182Z,4.50
2022-12-28T03:32:06.659Z,4.60
2022-12-28T03:34:33.964Z,4.50
2022-12-28T03:37:25.992Z,4.50
2022-12-28T03:40:06.579Z,4.40
2022-12-28T03:43:02.788Z,4.40
2022-12-28T03:45:47.438Z,4.40
2022-12-28T03:48:15.718Z,4.40
2022-12-28T03:50:46.209Z,4.40
2022-12-28T03:53:13.243Z,4.40
2022-12-28T03:55:40.525Z,4.30
2022-12-28T03:58:07.391Z,4.30
2022-12-28T04:00:34.521Z,4.30
2022-12-28T04:03:01.080Z,4.30
2022-12-28T04:05:27.675Z,4.20
2022-12-28T04:07:54.302Z,4.00
2022-12-28T04:10:21.005Z,4.20
2022-12-28T04:12:47.564Z,4.10
2022-12-28T04:15:14.194Z,4.10
2022-12-28T04:17:40.862Z,4.00
2022-12-28T04:20:08.000Z,4.30
2022-12-28T04:22:34.581Z,4.00
2022-12-28T04:25:01.166Z,3.60
2022-12-28T04:27:27.818Z,4.00
2022-12-28T04:29:54.401Z,4.10
2022-12-28T04:32:21.000Z,4.10
2022-12-28T04:34:48.841Z,4.10
2022-12-28T04:37:15.824Z,4.10
2022-12-28T04:39:55.534Z,4.10
2022-12-28T04:42:27.193Z,4.00
2022-12-28T04:44:53.985Z,4.00
2022-12-28T04:47:20.734Z,2.70
2022-12-28T04:49:47.308Z,4.10
2022-12-28T04:52:13.952Z,4.10
2022-12-28T04:54:40.537Z,4.00
2022-12-28T04:57:07.134Z,4.10
2022-12-28T04:59:34.042Z,4.10
2022-12-28T05:02:01.091Z,4.00
2022-12-28T05:04:27.742Z,4.00
2022-12-28T05:06:54.304Z,4.00
2022-12-28T05:09:20.926Z,4.00
2022-12-28T05:11:47.495Z,4.00
2022-12-28T05:14:14.718Z,4.00
2022-12-28T05:16:42.226Z,4.00
2022-12-28T05:19:08.830Z,4.00
2022-12-28T05:21:35.416Z,4.00
2022-12-28T05:24:02.000Z,4.10
2022-12-28T05:26:29.928Z,4.10
2022-12-28T05:28:58.567Z,4.10
2022-12-28T05:31:25.598Z,4.10
2022-12-28T05:33:53.101Z,4.10
2022-12-28T05:36:25.425Z,4.10
2022-12-28T05:38:53.565Z,4.20
2022-12-28T05:41:24.096Z,4.20
2022-12-28T05:43:51.141Z,4.10
2022-12-28T05:46:26.627Z,4.10
2022-12-28T05:48:57.223Z,4.10
2022-12-28T05:51:26.338Z,4.20
2022-12-28T05:53:52.926Z,4.20
2022-12-28T05:56:24.131Z,4.20
2022-12-28T05:58:59.615Z,4.10
2022-12-28T06:01:29.062Z,4.20
2022-12-28T06:04:00.173Z,4.20
2022-12-28T06:06:27.576Z,4.30
2022-12-28T06:08:54.846Z,4.20
2022-12-28T06:11:24.476Z,4.30
2022-12-28T06:13:51.854Z,4.30
2022-12-28T06:16:21.397Z,4.30
2022-12-28T06:18:48.411Z,4.30
2022-12-28T06:21:20.365Z,4.30
2022-12-28T06:23:47.825Z,4.30
2022-12-28T06:26:18.510Z,4.40
2022-12-28T06:28:45.589Z,4.50
2022-12-28T06:31:15.068Z,4.50
2022-12-28T06:33:42.466Z,4.50
2022-12-28T06:36:34.071Z,4.60
2022-12-28T06:39:02.090Z,4.60
2022-12-28T06:41:29.457Z,4.70
2022-12-28T06:43:57.419Z,4.60
2022-12-28T06:46:26.205Z,4.70
2022-12-28T06:48:52.818Z,4.70
2022-12-28T06:51:28.316Z,4.60
2022-12-28T06:53:55.435Z,4.50
2022-12-28T06:56:24.757Z,4.70
2022-12-28T06:58:58.418Z,4.60
2022-12-28T07:01:31.867Z,4.10
2022-12-28T07:04:01.749Z,4.30
2022-12-28T07:06:29.283Z,4.50
2022-12-28T07:09:00.913Z,4.50
2022-12-28T07:11:28.924Z,4.60
2022-12-28T07:13:56.374Z,4.60
2022-12-28T07:16:24.510Z,4.50
2022-12-28T07:18:51.214Z,4.50
2022-12-28T07:21:21.435Z,4.60
2022-12-28T07:23:49.109Z,4.30
2022-12-28T07:26:20.488Z,4.60
2022-12-28T07:28:48.747Z,4.60
2022-12-28T07:31:18.928Z,4.60
2022-12-28T07:33:46.665Z,4.60
2022-12-28T07:36:16.417Z,4.70
2022-12-28T07:38:43.835Z,4.70
2022-12-28T07:41:12.805Z,4.70
2022-12-28T07:43:39.740Z,4.70
2022-12-28T07:46:12.090Z,4.70
2022-12-28T07:48:39.909Z,4.80
2022-12-28T07:51:21.398Z,4.80
2022-12-28T07:53:49.979Z,4.80
2022-12-28T07:56:18.701Z,4.90
2022-12-28T07:58:56.388Z,4.90
2022-12-28T08:01:25.455Z,4.90
2022-12-28T08:03:58.034Z,4.90
2022-12-28T08:06:26.409Z,4.90
2022-12-28T08:08:55.482Z,4.90
2022-12-28T08:11:24.402Z,4.90
2022-12-28T08:13:53.438Z,5.00
2022-12-28T08:16:21.784Z,4.90
2022-12-28T08:18:49.748Z,5.00
2022-12-28T08:21:19.999Z,5.00
2022-12-28T08:23:47.358Z,4.90
2022-12-28T08:26:31.104Z,4.90
2022-12-28T08:29:00.237Z,4.90
2022-12-28T08:31:30.921Z,5.00
2022-12-28T08:33:59.154Z,5.00
2022-12-28T08:36:26.710Z,5.00
2022-12-28T08:38:53.485Z,5.10
2022-12-28T08:41:23.238Z,4.60
2022-12-28T08:43:51.402Z,5.10
2022-12-28T08:46:25.307Z,5.20
2022-12-28T08:48:53.409Z,5.20
2022-12-28T08:51:27.411Z,4.90
2022-12-28T08:53:54.218Z,5.30
2022-12-28T08:56:27.740Z,5.30
2022-12-28T08:58:55.094Z,3.70
2022-12-28T09:01:24.295Z,5.30
2022-12-28T09:03:53.565Z,5.50
2022-12-28T09:06:25.550Z,5.50
2022-12-28T09:09:05.541Z,5.50
2022-12-28T09:11:35.046Z,5.60
2022-12-28T09:14:02.569Z,5.60
2022-12-28T09:16:29.737Z,5.60
2022-12-28T09:18:59.518Z,5.60
2022-12-28T09:21:32.294Z,5.60
2022-12-28T09:23:59.580Z,5.70
2022-12-28T09:26:29.463Z,5.70
2022-12-28T09:28:58.753Z,5.70
2022-12-28T09:31:28.309Z,5.80
2022-12-28T09:36:50.887Z,5.80
2022-12-28T09:39:20.458Z,5.80
2022-12-28T09:42:02.019Z,5.90
2022-12-28T09:44:43.564Z,5.80
2022-12-28T09:47:19.660Z,5.90
2022-12-28T09:50:28.435Z,6.00
2022-12-28T09:53:23.035Z,6.00
2022-12-28T09:55:59.695Z,6.10
2022-12-28T09:58:28.992Z,6.10
2022-12-28T10:01:01.976Z,6.10
2022-12-28T10:03:42.372Z,6.20
2022-12-28T10:06:20.879Z,6.30
2022-12-28T10:08:51.050Z,6.30
2022-12-28T10:11:24.445Z,6.40
2022-12-28T10:13:59.908Z,6.30
2022-12-28T10:16:30.237Z,6.40
2022-12-28T10:18:57.140Z,6.50
2022-12-28T10:21:32.281Z,6.60
2022-12-28T10:26:47.559Z,6.60
2022-12-28T10:29:19.822Z,6.60
2022-12-28T10:32:03.595Z,6.60
2022-12-28T10:34:35.240Z,6.60
2022-12-28T10:37:14.487Z,6.70
2022-12-28T10:39:53.328Z,6.70
2022-12-28T10:42:37.072Z,6.80
2022-12-28T10:45:20.410Z,6.70
2022-12-28T10:47:50.927Z,6.70
2022-12-28T10:50:44.581Z,6.60
2022-12-28T10:53:38.676Z,6.70
2022-12-28T10:56:13.247Z,6.70
2022-12-28T10:58:45.450Z,6.80
2022-12-28T11:01:15.114Z,6.80
2022-12-28T11:03:59.091Z,6.80
2022-12-28T11:06:28.747Z,6.80
2022-12-28T11:09:20.389Z,7.00
2022-12-28T11:11:49.922Z,7.00
2022-12-28T11:14:31.634Z,7.00
2022-12-28T11:16:58.627Z,7.10
2022-12-28T11:19:28.656Z,7.10
2022-12-28T11:21:56.776Z,7.20
2022-12-28T11:24:27.195Z,6.90
2022-12-28T11:26:54.058Z,7.30
2022-12-28T11:29:20.882Z,7.40
2022-12-28T11:31:56.078Z,7.40
2022-12-28T11:34:27.008Z,7.30
2022-12-28T11:36:54.250Z,7.30
2022-12-28T11:39:26.576Z,7.30
2022-12-28T11:44:41.245Z,7.40
2022-12-28T11:47:16.646Z,7.40
2022-12-28T11:49:47.617Z,7.50
2022-12-28T11:52:17.026Z,7.50
2022-12-28T11:54:58.164Z,7.50
2022-12-28T11:57:42.332Z,7.60
2022-12-28T12:00:38.193Z,7.70
2022-12-28T12:03:06.513Z,7.70
2022-12-28T12:05:36.714Z,7.80
2022-12-28T12:08:12.391Z,7.80
2022-12-28T12:10:41.609Z,7.90
2022-12-28T12:13:27.217Z,7.90
2022-12-28T12:16:04.101Z,7.90
2022-12-28T12:18:45.907Z,8.00
2022-12-28T12:21:23.990Z,8.00
2022-12-28T12:24:00.509Z,8.00
2022-12-28T12:26:46.520Z,8.00
2022-12-28T12:29:36.783Z,8.00
2022-12-28T12:32:25.610Z,8.10
2022-12-28T12:35:05.794Z,8.30
2022-12-28T12:37:41.943Z,8.40
2022-12-28T12:40:47.111Z,8.40
2022-12-28T12:43:26.729Z,8.40
2022-12-28T12:46:15.235Z,8.50
2022-12-28T12:48:52.147Z,8.40
2022-12-28T12:51:41.203Z,8.40
2022-12-28T12:54:27.683Z,8.40
2022-12-28T12:57:06.378Z,8.50
2022-12-28T13:00:06.074Z,8.50
2022-12-28T13:03:15.575Z,8.50
2022-12-28T13:05:47.369Z,8.60
2022-12-28T13:08:27.771Z,8.70
2022-12-28T13:10:55.319Z,8.80
2022-12-28T13:13:34.034Z,8.80
2022-12-28T13:16:09.272Z,8.80
2022-12-28T13:18:44.960Z,8.70
2022-12-28T13:21:21.143Z,8.80
2022-12-28T13:23:48.654Z,8.80
2022-12-28T13:26:16.674Z,8.80
2022-12-28T13:28:51.486Z,8.80
2022-12-28T13:31:25.267Z,8.80
2022-12-28T13:34:03.893Z,8.80
2022-12-28T13:36:30.563Z,8.80
2022-12-28T13:39:05.740Z,8.70
2022-12-28T13:41:35.096Z,8.80
2022-12-28T13:44:28.504Z,8.80
2022-12-28T13:47:28.348Z,8.70
2022-12-28T13:50:14.404Z,8.70
2022-12-28T13:52:59.510Z,8.70
2022-12-28T13:55:37.445Z,8.90
2022-12-28T13:58:11.715Z,8.90
2022-12-28T14:00:39.244Z,8.80
2022-12-28T14:03:08.996Z,8.90
2022-12-28T14:05:35.665Z,8.90
2022-12-28T14:08:06.100Z,8.90
2022-12-28T14:10:33.573Z,8.80
2022-12-28T14:13:01.760Z,8.80
2022-12-28T14:15:28.852Z,8.60
2022-12-28T14:17:55.948Z,8.50
2022-12-28T14:20:22.936Z,8.40
2022-12-28T14:22:49.531Z,8.40
2022-12-28T14:25:19.087Z,8.50
2022-12-28T14:28:02.301Z,8.60
2022-12-28T14:30:32.649Z,8.30
2022-12-28T14:33:11.550Z,8.50
2022-12-28T14:35:48.190Z,8.50
2022-12-28T14:38:24.306Z,8.50
2022-12-28T14:41:00.269Z,8.30
2022-12-28T14:43:30.452Z,8.60
2022-12-28T14:46:06.809Z,8.50
2022-12-28T14:48:37.479Z,8.50
2022-12-28T14:51:05.591Z,8.40
2022-12-28T14:53:32.431Z,8.40
2022-12-28T14:56:13.677Z,8.30
2022-12-28T14:58:52.318Z,8.20
2022-12-28T15:01:23.551Z,8.30
2022-12-28T15:03:54.342Z,8.20
2022-12-28T15:06:25.856Z,8.20
2022-12-28T15:08:54.210Z,8.10
2022-12-28T15:11:22.755Z,8.10
2022-12-28T15:13:49.920Z,8.10
2022-12-28T15:16:18.473Z,8.10
2022-12-28T15:18:45.722Z,8.10
2022-12-28T15:21:17.701Z,8.20
2022-12-28T15:23:48.393Z,8.10
2022-12-28T15:26:15.436Z,8.10
2022-12-28T15:28:42.343Z,8.10
2022-12-28T15:31:12.619Z,8.10
2022-12-28T15:33:39.611Z,8.20
2022-12-28T15:36:16.976Z,8.10
2022-12-28T15:38:44.807Z,8.20
2022-12-28T15:41:30.238Z,8.20
2022-12-28T15:43:56.886Z,8.50
2022-12-28T15:46:26.882Z,8.20
2022-12-28T15:48:53.833Z,8.10
2022-12-28T15:51:20.425Z,8.10
2022-12-28T15:53:46.987Z,8.10
2022-12-28T15:56:27.002Z,8.10
2022-12-28T15:58:55.109Z,8.10
2022-12-28T16:01:22.764Z,8.10
2022-12-28T16:03:53.440Z,8.00
2022-12-28T16:06:21.133Z,8.00
2022-12-28T16:08:47.871Z,8.00
2022-12-28T16:11:19.608Z,7.90
2022-12-28T16:13:54.489Z,8.00
2022-12-28T16:16:22.948Z,8.00
2022-12-28T16:18:50.429Z,8.00
2022-12-28T16:21:20.397Z,7.90
2022-12-28T16:23:46.968Z,8.00
2022-12-28T16:26:13.731Z,8.10
2022-12-28T16:28:40.906Z,8.00
2022-12-28T16:31:08.199Z,8.00
2022-12-28T16:33:34.879Z,8.10
2022-12-28T16:36:01.533Z,8.00
2022-12-28T16:38:29.000Z,8.00
2022-12-28T16:40:56.884Z,8.10
2022-12-28T16:43:24.196Z,8.10
2022-12-28T16:45:51.080Z,8.10
2022-12-28T16:48:17.807Z,8.10
2022-12-28T16:50:44.385Z,8.10
2022-12-28T16:53:11.072Z,8.20
2022-12-28T16:55:42.560Z,8.20
2022-12-28T16:58:09.948Z,8.30
2022-12-28T17:00:36.812Z,8.30
2022-12-28T17:03:03.672Z,8.30
2022-12-28T17:05:35.270Z,8.30
2022-12-28T17:08:05.872Z,8.30
2022-12-28T17:10:32.584Z,8.30
2022-12-28T17:12:59.256Z,8.30
2022-12-28T17:15:26.015Z,8.40
2022-12-28T17:17:52.747Z,8.40
2022-12-28T17:20:19.334Z,8.40
2022-12-28T17:22:46.540Z,8.40
2022-12-28T17:25:13.298Z,8.40
2022-12-28T17:27:39.912Z,8.40
2022-12-28T17:30:07.034Z,8.30
2022-12-28T17:32:33.853Z,8.30
2022-12-28T17:35:00.526Z,8.20
2022-12-28T17:37:27.090Z,8.10
2022-12-28T17:39:53.685Z,8.10
2022-12-28T17:42:20.272Z,8.10
2022-12-28T17:44:48.502Z,8.00
2022-12-28T17:47:15.222Z,7.90
2022-12-28T17:49:41.792Z,7.90
2022-12-28T17:52:08.400Z,7.90
2022-12-28T17:54:35.028Z,7.90
2022-12-28T17:57:01.649Z,7.90
2022-12-28T17:59:28.311Z,8.00
2022-12-28T18:01:55.070Z,8.10
2022-12-28T18:04:21.924Z,7.90
2022-12-28T18:06:48.469Z,8.00
2022-12-28T18:09:15.137Z,8.00
2022-12-28T18:11:41.867Z,8.00
2022-12-28T18:14:11.024Z,8.00
2022-12-28T18:16:37.645Z,8.00
2022-12-28T18:19:04.242Z,8.10
2022-12-28T18:21:31.036Z,8.10
2022-12-28T18:23:57.669Z,8.00
2022-12-28T18:26:26.270Z,8.10
2022-12-28T18:28:54.461Z,8.00
2022-12-28T18:31:21.500Z,8.00
2022-12-28T18:33:48.553Z,8.00
2022-12-28T18:36:18.075Z,8.00
2022-12-28T18:38:46.242Z,8.10
2022-12-28T18:41:15.273Z,8.10
2022-12-28T18:43:42.103Z,8.10
2022-12-28T18:46:09.095Z,8.10
2022-12-28T18:48:38.199Z,8.10
2022-12-28T18:51:08.460Z,8.10
2022-12-28T18:53:35.520Z,8.10
2022-12-28T18:56:13.539Z,8.20
2022-12-28T18:58:41.385Z,8.10
2022-12-28T19:01:39.746Z,8.10
2022-12-28T19:04:01.493Z,8.00
2022-12-28T19:06:29.370Z,8.00
2022-12-28T19:09:02.400Z,8.10
2022-12-28T19:11:29.389Z,8.10
2022-12-28T19:13:56.700Z,8.10
2022-12-28T19:16:30.529Z,8.10
2022-12-28T19:18:59.528Z,8.10
2022-12-28T19:21:32.582Z,8.10
2022-12-28T19:24:04.601Z,8.00
2022-12-28T19:26:32.925Z,8.00
2022-12-28T19:28:59.791Z,7.90
2022-12-28T19:31:27.121Z,7.90
2022-12-28T19:33:53.828Z,7.90
2022-12-28T19:36:20.568Z,7.90
2022-12-28T19:38:47.437Z,7.80
2022-12-28T19:41:16.185Z,7.80
2022-12-28T19:43:44.091Z,7.70
2022-12-28T19:46:16.883Z,7.80
2022-12-28T19:48:43.509Z,7.80
2022-12-28T19:51:10.633Z,7.80
2022-12-28T19:53:37.502Z,7.60
2022-12-28T19:56:06.922Z,7.80
2022-12-28T19:58:35.076Z,7.70
2022-12-28T20:01:10.101Z,7.70
2022-12-28T20:03:37.396Z,7.70
2022-12-28T20:06:18.608Z,7.60
2022-12-28T20:08:46.535Z,7.60
2022-12-28T20:11:13.611Z,7.70
2022-12-28T20:13:41.061Z,7.70
2022-12-28T20:16:09.037Z,7.70
2022-12-28T20:18:35.702Z,7.40
2022-12-28T20:21:21.182Z,7.70
2022-12-28T20:23:49.796Z,7.70
2022-12-28T20:26:17.208Z,7.70
2022-12-28T20:28:44.126Z,7.70
2022-12-28T20:31:13.814Z,7.70
2022-12-28T20:33:41.865Z,7.60
2022-12-28T20:36:12.335Z,7.30
2022-12-28T20:38:38.962Z,7.70
2022-12-28T20:41:39.440Z,7.70
2022-12-28T20:44:09.414Z,7.60
2022-12-28T20:46:36.618Z,7.70
2022-12-28T20:49:04.560Z,7.60
2022-12-28T20:51:31.451Z,7.60
2022-12-28T20:53:58.077Z,7.70
2022-12-28T20:56:24.825Z,7.60
2022-12-28T20:58:51.464Z,7.70
2022-12-28T21:01:18.366Z,7.70
2022-12-28T21:03:45.557Z,7.60
2022-12-28T21:06:12.563Z,7.60
2022-12-28T21:08:39.396Z,7.60
2022-12-28T21:11:06.026Z,7.60
2022-12-28T21:13:32.694Z,7.60
2022-12-28T21:16:02.651Z,7.60
2022-12-28T21:18:29.309Z,7.70
2022-12-28T21:20:57.760Z,7.70
2022-12-28T21:23:24.519Z,7.60
2022-12-28T21:25:51.228Z,7.60
2022-12-28T21:28:18.016Z,7.60
2022-12-28T21:30:52.299Z,7.70
2022-12-28T21:33:18.846Z,7.70
2022-12-28T21:35:55.542Z,7.80
2022-12-28T21:38:22.295Z,7.70
2022-12-28T21:40:59.995Z,7.70
2022-12-28T21:43:27.486Z,7.80
2022-12-28T21:46:03.096Z,7.70
2022-12-28T21:48:37.469Z,7.70
2022-12-28T21:51:31.911Z,7.80
2022-12-28T21:54:12.257Z,7.70
2022-12-28T21:56:40.121Z,7.70
2022-12-28T21:59:07.033Z,7.70
2022-12-28T22:01:52.689Z,7.70
2022-12-28T22:04:39.951Z,7.70
2022-12-28T22:07:08.437Z,7.70
2022-12-28T22:09:54.371Z,8.00
2022-12-28T22:12:37.090Z,7.70
2022-12-28T22:15:30.204Z,7.70
2022-12-28T22:17:59.314Z,7.80
2022-12-28T22:20:27.605Z,7.80
2022-12-28T22:23:00.252Z,7.80
2022-12-28T22:25:28.803Z,7.80
2022-12-28T22:27:55.984Z,7.80
2022-12-28T22:30:23.004Z,7.90
2022-12-28T22:32:49.826Z,7.90
2022-12-28T22:35:16.924Z,7.90
2022-12-28T22:37:43.784Z,8.00
2022-12-28T22:40:11.566Z,8.10
2022-12-28T22:42:45.172Z,8.00
2022-12-28T22:45:13.373Z,8.40
2022-12-28T22:47:40.568Z,8.00
2022-12-28T22:50:09.293Z,8.00
2022-12-28T22:52:35.919Z,8.10
2022-12-28T22:55:02.659Z,8.10
2022-12-28T22:57:29.270Z,8.10
2022-12-28T22:59:55.863Z,8.10
2022-12-28T23:02:22.722Z,8.20
2022-12-28T23:04:49.459Z,7.80
2022-12-28T23:07:16.218Z,8.20
2022-12-28T23:09:42.777Z,7.90
2022-12-28T23:12:09.356Z,8.10
2022-12-28T23:14:54.532Z,8.10
2022-12-28T23:17:21.357Z,8.10
2022-12-28T23:20:06.583Z,8.10
2022-12-28T23:22:52.936Z,8.00
2022-12-28T23:25:41.299Z,8.10
2022-12-28T23:28:11.299Z,8.00
2022-12-28T23:30:41.702Z,8.10
2022-12-28T23:33:08.319Z,8.10
2022-12-28T23:35:34.961Z,8.10
2022-12-28T23:38:01.717Z,8.20
2022-12-28T23:40:28.660Z,8.20
2022-12-28T23:42:55.269Z,8.20
2022-12-28T23:45:22.505Z,7.90
2022-12-28T23:47:51.730Z,7.90
2022-12-28T23:50:19.386Z,8.20
2022-12-28T23:52:46.439Z,8.10
2022-12-28T23:55:13.248Z,8.20
2022-12-28T23:57:40.385Z,8.20
